Time;durP1;ratioP1;P1;durP2;ratioP2;P2;SDS_P1;SDS_P2;PMS_P1;PMS_P2;Temp;Humidity;BMP_temperature;BMP_pressure;BME280_temperature;BME280_humidity;BME280_pressure;Samples;Min_cycle;Max_cycle;Signal;HPM_P1;HPM_P2
2022/12/30 00:02:28;;;;;;;54.33;23.60;;;1.20;99.90;;;-1.11;100.00;100427.47;10510196;28;20531;-88
2022/12/30 00:07:34;;;;;;;56.00;24.97;;;1.30;99.90;;;-1.13;100.00;100433.72;10507421;28;20052;-88
2022/12/30 00:34:09;;;;;;;44.40;21.50;;;1.60;99.90;;;-0.74;100.00;100429.72;10531428;28;20996;-91
2022/12/30 00:39:11;;;;;;;51.03;23.90;;;1.70;99.90;;;-0.67;100.00;100420.56;10548568;28;20052;-91
2022/12/30 00:44:14;;;;;;;42.20;20.57;;;1.70;99.90;;;-0.62;100.00;100418.53;10546641;28;20064;-91
2022/12/30 01:00:01;;;;;;;46.43;21.03;;;2.00;99.90;;;-0.36;100.00;100407.38;10545874;28;20060;-90
2022/12/30 01:05:08;;;;;;;33.93;16.50;;;2.10;99.90;;;-0.31;100.00;100392.25;10527539;28;20498;-90
2022/12/30 01:10:12;;;;;;;37.10;16.37;;;2.20;99.90;;;-0.22;100.00;100410.94;10492624;28;20056;-91
2022/12/30 01:15:15;;;;;;;38.63;16.37;;;2.20;99.90;;;-0.17;100.00;100401.88;10514685;28;20082;-90
2022/12/30 01:20:18;;;;;;;40.83;17.40;;;2.20;99.90;;;-0.10;100.00;100404.94;10563605;28;20464;-91
2022/12/30 01:25:21;;;;;;;28.53;13.80;;;2.30;99.90;;;-0.05;100.00;100397.66;10549899;28;20711;-91
2022/12/30 01:30:24;;;;;;;40.43;17.13;;;2.40;99.90;;;-0.02;100.00;100392.25;10543702;28;20147;-90
2022/12/30 01:35:27;;;;;;;36.37;16.23;;;2.40;99.90;;;0.01;100.00;100394.66;10552091;28;20067;-90
2022/12/30 01:40:37;;;;;;;26.47;13.57;;;2.50;99.90;;;0.06;100.00;100397.84;10514017;28;20065;-91
2022/12/30 01:45:48;;;;;;;24.73;12.87;;;2.50;99.90;;;0.12;100.00;100394.84;10517258;28;20052;-91
2022/12/30 01:51:09;;;;;;;37.35;14.50;;;2.50;99.90;;;0.14;100.00;100387.72;10565302;27;20114;-91
2022/12/30 01:56:19;;;;;;;27.57;13.57;;;2.60;99.90;;;0.17;100.00;100390.13;10513028;28;20057;-89
2022/12/30 02:01:23;;;;;;;33.63;14.67;;;2.60;99.90;;;0.15;100.00;100384.19;10536146;28;20064;-89
2022/12/30 02:06:58;;;;;;;39.40;15.47;;;2.60;99.90;;;0.22;100.00;100385.47;10538748;28;20139;-89
2022/12/30 02:12:04;;;;;;;38.47;16.87;;;2.60;99.90;;;0.25;100.00;100380.06;10496899;28;20151;-90
2022/12/30 02:17:41;;;;;;;39.07;17.23;;;2.70;99.90;;;0.29;100.00;100361.53;10532188;28;20070;-90
2022/12/30 02:23:24;;;;;;;45.93;17.47;;;2.70;99.90;;;0.33;100.00;100361.25;10550521;28;20065;-90
2022/12/30 02:28:45;;;;;;;40.50;16.60;;;2.70;99.90;;;0.35;100.00;100369.84;10528453;28;20454;-89
2022/12/30 02:34:17;;;;;;;47.70;19.70;;;2.80;99.90;;;0.37;100.00;100375.81;10549480;28;20102;-88
2022/12/30 02:39:53;;;;;;;41.33;18.50;;;2.80;99.90;;;0.40;100.00;100364.31;10547041;28;20068;-88
2022/12/30 02:45:01;;;;;;;51.53;22.47;;;2.80;99.90;;;0.43;100.00;100364.13;10526214;28;20575;-88
2022/12/30 02:55:33;;;;;;;55.80;19.20;;;2.80;99.90;;;0.47;100.00;100366.44;10530729;28;20060;-89
2022/12/30 03:07:14;;;;;;;36.70;15.60;;;2.90;99.90;;;0.53;100.00;100355.56;10527776;28;20060;-89
2022/12/30 03:12:27;;;;;;;43.47;16.17;;;2.90;99.90;;;0.53;100.00;100352.94;10525951;28;20090;-89
2022/12/30 03:17:37;;;;;;;43.67;18.47;;;3.00;99.90;;;0.56;100.00;100358.94;10541468;28;20060;-89
2022/12/30 03:28:12;;;;;;;43.97;19.27;;;3.00;99.90;;;0.58;100.00;100357.88;10556805;28;20079;-88
2022/12/30 03:33:19;;;;;;;54.78;17.65;;;3.00;99.90;;;0.59;100.00;100354.34;10537937;28;20057;-88
2022/12/30 03:38:31;;;;;;;43.93;18.10;;;3.00;99.90;;;0.62;100.00;100358.53;10507114;27;20545;-88
2022/12/30 03:43:36;;;;;;;42.33;17.90;;;3.00;99.90;;;0.64;100.00;100349.66;10539778;28;20056;-89
2022/12/30 03:48:39;;;;;;;46.80;16.20;;;3.00;99.90;;;0.66;100.00;100342.56;10557639;28;20059;-89
2022/12/30 03:53:42;;;;;;;63.80;21.53;;;3.10;99.90;;;0.66;100.00;100332.09;10525049;28;20107;-89
2022/12/30 03:58:45;;;;;;;48.80;19.33;;;3.10;99.90;;;0.68;100.00;100334.59;10533000;28;20512;-89
2022/12/30 04:03:48;;;;;;;47.93;20.17;;;3.10;99.90;;;0.67;100.00;100344.22;10515899;28;20106;-90
2022/12/30 04:08:51;;;;;;;51.27;17.97;;;3.10;99.90;;;0.69;100.00;100346.72;10513299;28;20468;-89
2022/12/30 04:13:54;;;;;;;36.80;16.63;;;3.10;99.90;;;0.69;100.00;100342.34;10540714;28;20059;-90
2022/12/30 04:18:57;;;;;;;44.07;17.37;;;3.10;99.90;;;0.72;100.00;100347.38;10525849;28;20063;-91
2022/12/30 04:24:00;;;;;;;42.30;18.20;;;3.10;99.90;;;0.71;100.00;100357.91;10512977;28;20161;-91
2022/12/30 04:29:03;;;;;;;38.67;16.83;;;3.10;99.90;;;0.73;100.00;100359.50;10526129;28;20060;-90
2022/12/30 04:34:07;;;;;;;43.03;16.20;;;3.10;99.90;;;0.73;100.00;100372.59;10530733;28;20098;-89
2022/12/30 04:39:10;;;;;;;61.53;21.63;;;3.10;99.90;;;0.77;100.00;100373.22;10515103;28;20060;-89
2022/12/30 04:44:13;;;;;;;44.67;18.17;;;3.20;99.90;;;0.78;100.00;100373.13;10531096;28;20056;-90
2022/12/30 04:49:16;;;;;;;44.00;16.87;;;3.20;99.90;;;0.79;100.00;100363.50;10531079;28;20067;-90
2022/12/30 04:54:20;;;;;;;52.53;20.00;;;3.20;99.90;;;0.80;100.00;100373.84;10538840;28;20060;-89
2022/12/30 04:59:23;;;;;;;51.33;19.37;;;3.20;99.90;;;0.79;100.00;100374.81;10535692;28;20139;-90
2022/12/30 05:04:26;;;;;;;40.37;16.60;;;3.20;99.90;;;0.82;100.00;100376.38;10532427;28;20060;-90
2022/12/30 05:09:29;;;;;;;44.27;18.27;;;3.20;99.90;;;0.83;100.00;100385.03;10513876;28;20060;-90
2022/12/30 05:14:32;;;;;;;52.27;19.70;;;3.20;99.90;;;0.85;100.00;100373.56;10548384;28;20060;-90
2022/12/30 05:19:35;;;;;;;43.37;17.30;;;3.20;99.90;;;0.86;100.00;100363.94;10552441;28;20446;-90
2022/12/30 05:29:59;;;;;;;50.37;18.37;;;3.30;99.90;;;0.87;100.00;100363.81;10545723;28;20091;-89
2022/12/30 05:35:03;;;;;;;36.17;17.80;;;3.30;99.90;;;0.89;100.00;100382.88;10542514;28;20055;-89
2022/12/30 05:40:07;;;;;;;39.70;16.73;;;3.30;99.90;;;0.91;100.00;100395.88;10545855;28;20063;-91
2022/12/30 05:45:10;;;;;;;55.43;21.87;;;3.30;99.90;;;0.93;100.00;100393.97;10549696;28;20057;-88
2022/12/30 05:50:14;;;;;;;46.63;20.47;;;3.40;99.90;;;0.95;100.00;100403.38;10514734;28;20520;-87
2022/12/30 05:55:17;;;;;;;50.17;20.20;;;3.40;99.90;;;0.96;100.00;100402.47;10514601;28;20060;-89
2022/12/30 06:00:20;;;;;;;55.87;20.27;;;3.40;99.90;;;0.94;100.00;100398.25;10536157;28;20125;-89
2022/12/30 06:05:23;;;;;;;43.83;19.37;;;3.40;99.90;;;0.97;100.00;100400.69;10559379;28;20151;-88
2022/12/30 06:10:26;;;;;;;52.67;18.60;;;3.40;99.90;;;0.97;100.00;100413.78;10535278;28;20071;-88
2022/12/30 06:15:29;;;;;;;53.03;21.37;;;3.40;99.90;;;0.97;100.00;100426.88;10529275;28;20064;-89
2022/12/30 06:20:36;;;;;;;67.43;25.30;;;3.40;99.90;;;1.00;100.00;100427.47;10519837;28;20096;-89
2022/12/30 06:25:40;;;;;;;66.53;24.17;;;3.40;99.90;;;1.01;100.00;100428.31;10545346;28;20048;-90
2022/12/30 06:30:43;;;;;;;46.67;20.07;;;3.40;99.90;;;1.04;100.00;100428.13;10527953;28;20508;-91
2022/12/30 06:35:47;;;;;;;51.20;20.67;;;3.50;99.90;;;1.07;100.00;100420.91;10523485;28;20063;-89
2022/12/30 06:40:50;;;;;;;56.77;20.50;;;3.40;99.90;;;1.07;100.00;100425.28;10543361;28;20071;-89
2022/12/30 06:45:54;;;;;;;52.83;20.73;;;3.50;99.90;;;1.09;100.00;100433.91;10521548;28;20064;-90
2022/12/30 06:51:01;;;;;;;58.07;20.77;;;3.50;99.90;;;1.10;100.00;100434.75;10506709;28;20060;-89
2022/12/30 06:56:06;;;;;;;41.23;17.43;;;3.50;99.90;;;1.12;100.00;100432.84;10529516;28;20511;-89
2022/12/30 07:01:09;;;;;;;48.57;19.57;;;3.50;99.90;;;1.16;100.00;100448.25;10518354;28;20058;-89
2022/12/30 07:06:12;;;;;;;52.03;18.97;;;3.50;99.90;;;1.18;100.00;100467.31;10520062;28;20060;-92
2022/12/30 07:11:15;;;;;;;63.73;22.57;;;3.60;99.90;;;1.23;100.00;100462.59;10538697;28;20060;-92
2022/12/30 07:16:18;;;;;;;177.60;42.73;;;3.60;99.90;;;1.22;100.00;100474.03;10506668;28;20059;-91
2022/12/30 07:21:21;;;;;;;76.27;23.90;;;3.60;99.90;;;1.28;100.00;100478.03;10507677;28;20067;-91
2022/12/30 07:26:25;;;;;;;65.17;22.17;;;3.70;99.90;;;1.30;100.00;100487.44;10514343;28;20920;-90
2022/12/30 07:31:28;;;;;;;56.70;19.37;;;3.70;99.90;;;1.33;100.00;100489.03;10521445;28;20088;-90
2022/12/30 07:36:31;;;;;;;57.47;20.53;;;3.70;99.90;;;1.36;100.00;100490.59;10533660;28;20115;-91
2022/12/30 07:41:34;;;;;;;55.53;20.07;;;3.80;99.90;;;1.40;100.00;100495.53;10508054;28;20060;-90
2022/12/30 07:46:37;;;;;;;60.33;18.87;;;3.80;99.90;;;1.42;100.00;100504.13;10521657;28;20056;-90
2022/12/30 07:51:40;;;;;;;59.13;22.00;;;3.80;99.90;;;1.47;100.00;100502.03;10524647;28;20065;-90
2022/12/30 07:56:43;;;;;;;70.07;21.70;;;3.90;99.90;;;1.51;100.00;100507.91;10528201;28;20468;-90
2022/12/30 08:01:46;;;;;;;60.27;23.07;;;3.90;99.90;;;1.57;100.00;100521.44;10523337;28;20065;-90
2022/12/30 08:06:49;;;;;;;64.67;23.87;;;4.00;99.90;;;1.61;100.00;100524.69;10532650;28;20056;-89
2022/12/30 08:11:52;;;;;;;94.87;31.93;;;4.00;99.90;;;1.63;100.00;100509.72;10533292;28;20064;-89
2022/12/30 08:16:56;;;;;;;62.33;21.97;;;4.00;99.90;;;1.68;100.00;100509.38;10518649;28;20068;-88
2022/12/30 08:21:59;;;;;;;62.47;20.87;;;4.10;99.90;;;1.75;100.00;100526.41;10511361;28;20064;-89
2022/12/30 08:27:03;;;;;;;74.17;25.60;;;4.10;99.90;;;1.80;100.00;100535.63;10532761;28;20060;-88
2022/12/30 08:32:06;;;;;;;77.00;22.67;;;4.20;99.90;;;1.83;100.00;100524.91;10520632;28;20056;-84
2022/12/30 08:37:09;;;;;;;82.10;23.63;;;4.20;99.90;;;1.90;100.00;100527.13;10529026;28;20114;-87
2022/12/30 08:42:12;;;;;;;71.03;22.23;;;4.20;99.90;;;1.94;100.00;100516.34;10517219;28;20500;-91
2022/12/30 08:47:16;;;;;;;76.93;21.87;;;4.30;99.90;;;1.99;100.00;100521.25;10538672;27;20070;-89
2022/12/30 08:52:19;;;;;;;67.30;21.33;;;4.30;99.90;;;2.07;100.00;100526.81;10511201;27;20167;-86
2022/12/30 08:57:22;;;;;;;58.73;20.57;;;4.40;99.90;;;2.18;100.00;100526.91;10555110;28;20063;-89
2022/12/30 09:02:25;;;;;;;65.33;19.50;;;4.50;99.90;;;2.29;100.00;100521.75;10547589;27;20056;-87
2022/12/30 09:07:28;;;;;;;70.70;22.10;;;4.60;99.90;;;2.42;100.00;100519.97;10532220;28;20056;-85
2022/12/30 09:12:51;;;;;;;44.53;19.30;;;4.70;99.90;;;2.55;100.00;100513.84;10524080;28;20383;-94
2022/12/30 09:17:54;;;;;;;52.83;19.90;;;4.80;99.90;;;2.67;100.00;100515.59;10519483;28;20102;-92
2022/12/30 09:22:57;;;;;;;47.60;18.53;;;4.90;99.90;;;2.72;100.00;100513.47;10549092;28;20147;-93
2022/12/30 09:28:00;;;;;;;50.40;21.40;;;5.00;99.90;;;2.81;100.00;100520.69;10538555;28;20070;-81
2022/12/30 09:33:03;;;;;;;51.20;19.40;;;5.10;99.90;;;2.88;100.00;100529.81;10552727;28;20424;-91
2022/12/30 09:38:06;;;;;;;44.30;18.43;;;5.20;99.90;;;2.95;100.00;100525.78;10538004;28;20060;-91
2022/12/30 09:44:07;;;;;;;51.80;19.47;;;5.30;99.90;;;3.05;100.00;100543.47;10543639;28;20446;-91
2022/12/30 09:49:35;;;;;;;56.90;22.10;;;5.40;99.90;;;3.10;100.00;100539.56;10555687;28;20097;-91
2022/12/30 09:54:51;;;;;;;45.97;17.50;;;5.50;99.90;;;3.09;100.00;100531.81;10538226;28;20159;-91
2022/12/30 10:00:07;;;;;;;46.57;20.07;;;5.50;99.90;;;3.14;100.00;100529.69;10537407;28;20056;-91
2022/12/30 10:05:13;;;;;;;51.77;20.07;;;5.50;99.90;;;3.15;100.00;100523.50;10534771;27;20060;-88
2022/12/30 10:10:43;;;;;;;72.97;28.97;;;5.50;99.90;;;3.16;100.00;100517.28;10531274;28;20139;-87
2022/12/30 10:16:13;;;;;;;58.13;21.07;;;5.50;99.90;;;3.17;100.00;100521.59;10534936;28;20067;-88
2022/12/30 10:21:22;;;;;;;68.17;26.50;;;5.60;99.90;;;3.25;100.00;100516.63;10535429;28;20059;-88
2022/12/30 10:26:46;;;;;;;48.40;20.03;;;5.60;99.90;;;3.33;100.00;100519.50;10566475;28;20573;-96
2022/12/30 10:31:52;;;;;;;98.57;33.90;;;5.70;99.90;;;3.38;100.00;100537.56;10526889;28;20113;-95
2022/12/30 10:37:13;;;;;;;49.23;19.53;;;5.80;99.90;;;3.42;100.00;100534.59;10501974;28;20079;-94
2022/12/30 10:42:44;;;;;;;53.95;17.95;;;5.80;99.90;;;3.46;100.00;100520.25;10534971;28;20132;-94
2022/12/30 10:48:15;;;;;;;46.77;16.30;;;5.80;99.90;;;3.62;100.00;100519.13;10552890;28;20091;-87
2022/12/30 10:53:21;;;;;;;53.23;19.87;;;5.90;99.90;;;3.74;100.00;100528.72;10544558;28;20059;-93
2022/12/30 10:58:41;;;;;;;53.50;18.83;;;6.00;99.90;;;3.84;100.00;100524.44;10504112;28;20059;-94
2022/12/30 11:03:58;;;;;;;45.40;18.70;;;6.10;99.90;;;3.95;100.00;100503.41;10534440;28;20063;-95
2022/12/30 11:09:11;;;;;;;42.57;17.53;;;6.20;99.90;;;4.05;100.00;100494.81;10559089;28;20056;-95
2022/12/30 11:14:43;;;;;;;52.30;20.30;;;6.30;99.90;;;4.12;100.00;100496.00;10539061;28;20071;-96
2022/12/30 11:20:19;;;;;;;49.23;18.70;;;6.40;99.90;;;4.18;100.00;100490.28;10546032;28;20113;-96
2022/12/30 11:25:29;;;;;;;46.83;20.07;;;6.50;99.90;;;4.30;100.00;100489.31;10521916;28;20917;-96
2022/12/30 11:30:38;;;;;;;43.42;19.38;;;6.60;99.90;;;4.40;100.00;100487.66;10508559;28;20095;-95
2022/12/30 11:35:51;;;;;;;53.03;21.40;;;6.70;99.90;;;4.61;100.00;100482.44;10524530;28;20070;-95
2022/12/30 11:40:55;;;;;;;52.13;23.20;;;6.90;99.90;;;4.83;100.00;100492.09;10541823;28;20068;-95
2022/12/30 11:46:11;;;;;;;45.83;16.50;;;7.10;99.90;;;4.96;100.00;100497.22;10532466;28;20083;-96
2022/12/30 11:51:42;;;;;;;78.27;29.57;;;7.30;99.90;;;4.87;100.00;100501.44;10527274;28;20064;-89
2022/12/30 11:57:14;;;;;;;44.73;20.60;;;7.30;99.90;;;4.97;100.00;100497.09;10513705;27;20056;-96
2022/12/30 12:02:34;;;;;;;47.93;17.70;;;7.30;99.90;;;5.16;100.00;100516.66;10536395;28;20359;-95
2022/12/30 12:07:45;;;;;;;54.27;19.40;;;7.40;99.90;;;5.22;100.00;100524.09;10544836;28;20531;-96
2022/12/30 12:12:57;;;;;;;44.15;18.08;;;7.50;99.90;;;5.13;100.00;100519.56;10535380;28;20127;-96
2022/12/30 12:18:25;;;;;;;46.00;17.07;;;7.40;99.90;;;4.96;100.00;100521.75;10539796;28;20523;-95
2022/12/30 12:23:49;;;;;;;53.00;19.00;;;7.20;99.90;;;4.78;100.00;100520.59;10558050;28;20040;-96
2022/12/30 12:28:53;;;;;;;46.40;18.50;;;7.10;99.90;;;4.59;100.00;100502.81;10599632;28;20213;-93
2022/12/30 12:34:20;;;;;;;45.60;18.20;;;6.90;99.90;;;4.62;100.00;100510.47;10535373;28;20114;-94
2022/12/30 12:39:56;;;;;;;38.00;16.77;;;6.90;99.90;;;4.70;100.00;100517.75;10593254;28;20067;-94
2022/12/30 12:45:14;;;;;;;45.60;18.47;;;7.00;99.90;;;4.82;100.00;100508.88;10534632;28;20056;-95
2022/12/30 12:50:57;;;;;;;50.00;20.90;;;7.10;99.90;;;5.02;100.00;100521.25;10508959;28;20136;-95
2022/12/30 12:56:30;;;;;;;29.27;13.25;;;7.30;99.90;;;5.16;100.00;100519.28;10536557;28;20055;-95
2022/12/30 13:02:08;;;;;;;43.63;20.50;;;7.40;99.90;;;5.22;100.00;100505.66;10554680;28;20064;-96
2022/12/30 13:08:01;;;;;;;54.43;21.17;;;7.50;99.90;;;5.20;100.00;100526.81;10569372;28;20063;-95
2022/12/30 13:13:34;;;;;;;46.30;19.80;;;7.50;99.90;;;5.10;100.00;100532.03;10516231;28;20109;-94
2022/12/30 13:18:44;;;;;;;45.23;18.80;;;7.40;99.90;;;4.99;100.00;100549.66;10536291;28;20571;-96
2022/12/30 13:24:03;;;;;;;48.03;20.43;;;7.40;99.90;;;4.86;100.00;100544.53;10533763;28;20110;-95
2022/12/30 13:29:10;;;;;;;97.80;31.70;;;7.20;99.90;;;4.80;100.00;100540.59;10557618;28;20060;-96
2022/12/30 13:34:32;;;;;;;83.77;28.20;;;7.10;99.90;;;4.75;100.00;100555.09;10526924;28;20052;-95
2022/12/30 13:39:58;;;;;;;85.22;27.15;;;7.10;99.90;;;4.63;100.00;100562.16;10562631;28;20092;-95
2022/12/30 13:45:02;;;;;;;50.63;20.40;;;6.90;99.90;;;4.55;100.00;100552.22;10499225;28;20061;-95
2022/12/30 13:50:24;;;;;;;58.10;22.30;;;6.90;99.90;;;4.51;100.00;100569.22;10553903;28;20062;-95
2022/12/30 13:55:37;;;;;;;169.10;39.60;;;6.90;99.90;;;4.44;100.00;100568.03;10541361;28;20526;-95
2022/12/30 14:00:41;;;;;;;72.67;25.70;;;6.80;99.90;;;4.33;100.00;100568.03;10523049;28;20086;-96
2022/12/30 14:05:44;;;;;;;140.60;37.70;;;6.70;99.90;;;4.25;100.00;100586.16;10522732;28;20064;-90
2022/12/30 14:10:47;;;;;;;489.43;89.63;;;6.60;99.90;;;4.15;100.00;100591.31;10556143;28;20114;-89
2022/12/30 14:15:57;;;;;;;135.27;35.97;;;6.50;99.90;;;4.09;100.00;100598.84;10554216;27;20426;-91
2022/12/30 14:21:08;;;;;;;255.60;54.87;;;6.40;99.90;;;4.04;100.00;100601.81;10545447;28;20508;-90
2022/12/30 14:26:20;;;;;;;65.20;25.37;;;6.40;99.90;;;4.00;100.00;100614.34;10536837;28;20056;-95
2022/12/30 14:31:46;;;;;;;87.53;31.50;;;6.30;99.90;;;3.96;100.00;100607.66;10558706;28;20064;-95
2022/12/30 14:37:06;;;;;;;58.67;24.97;;;6.30;99.90;;;3.93;100.00;100621.03;10550923;28;20102;-95
2022/12/30 14:42:30;;;;;;;56.60;22.50;;;6.30;99.90;;;3.91;100.00;100630.00;10539784;28;20110;-90
2022/12/30 14:47:45;;;;;;;219.27;49.60;;;6.30;99.90;;;3.89;100.00;100627.44;10549797;28;20060;-88
2022/12/30 14:53:04;;;;;;;123.33;43.00;;;6.20;99.90;;;3.88;100.00;100631.03;10541107;28;20060;-90
2022/12/30 14:58:21;;;;;;;75.30;26.40;;;6.20;99.90;;;3.87;100.00;100639.88;10545467;28;20144;-90
2022/12/30 15:03:24;;;;;;;105.63;28.87;;;6.20;99.90;;;3.85;100.00;100644.44;10532161;28;20474;-88
2022/12/30 15:08:37;;;;;;;82.30;27.47;;;6.20;99.90;;;3.85;100.00;100641.78;10552130;28;20076;-89
2022/12/30 15:13:55;;;;;;;60.97;23.70;;;6.20;99.90;;;3.82;100.00;100643.81;10525184;28;20048;-90
2022/12/30 15:19:01;;;;;;;121.37;37.47;;;6.20;99.90;;;3.80;100.00;100637.81;10566157;28;20064;-90
2022/12/30 15:24:14;;;;;;;151.90;40.27;;;6.20;99.90;;;3.78;100.00;100634.47;10526557;28;20096;-90
2022/12/30 15:29:31;;;;;;;64.07;25.10;;;6.20;99.90;;;3.76;100.00;100647.72;10514055;28;20068;-88
2022/12/30 15:34:38;;;;;;;73.63;25.63;;;6.10;99.90;;;3.71;100.00;100655.09;10544686;28;20128;-88
2022/12/30 15:39:49;;;;;;;90.77;28.00;;;6.10;99.90;;;3.70;100.00;100656.06;10550413;28;20432;-88
2022/12/30 15:44:52;;;;;;;70.22;24.42;;;6.10;99.90;;;3.73;100.00;100669.00;10535634;28;20552;-87
2022/12/30 15:50:00;;;;;;;56.33;26.47;;;6.10;99.90;;;3.72;100.00;100677.84;10505471;28;20125;-90
2022/12/30 15:55:06;;;;;;;59.43;21.77;;;6.10;99.90;;;3.70;100.00;100675.28;10526186;28;20495;-90
2022/12/30 16:00:26;;;;;;;47.60;19.73;;;6.10;99.90;;;3.70;100.00;100677.09;10530818;28;20207;-92
2022/12/30 16:05:34;;;;;;;65.73;25.77;;;6.10;99.90;;;3.67;100.00;100674.69;10525596;28;20129;-92
2022/12/30 16:10:42;;;;;;;64.87;23.73;;;6.00;99.90;;;3.67;100.00;100667.66;10545532;28;20057;-93
2022/12/30 16:15:45;;;;;;;92.30;29.90;;;6.00;99.90;;;3.68;100.00;100677.22;10516506;28;20061;-91
2022/12/30 16:20:52;;;;;;;91.70;33.03;;;6.00;99.90;;;3.67;100.00;100672.06;10522555;28;20063;-91
2022/12/30 16:25:58;;;;;;;60.37;24.17;;;6.00;99.90;;;3.66;100.00;100673.84;10535324;28;20056;-95
2022/12/30 16:31:04;;;;;;;77.67;27.47;;;6.00;99.90;;;3.59;100.00;100674.41;10529325;28;20095;-95
2022/12/30 16:36:17;;;;;;;53.77;21.57;;;6.00;99.90;;;3.61;100.00;100685.66;10515543;28;20098;-94
2022/12/30 16:41:23;;;;;;;53.57;21.33;;;6.00;99.90;;;3.65;100.00;100681.84;10530624;28;20087;-96
2022/12/30 16:46:28;;;;;;;73.13;25.97;;;6.00;99.90;;;3.64;100.00;100680.16;10538994;28;20166;-96
2022/12/30 16:51:53;;;;;;;56.57;22.03;;;6.00;99.90;;;3.63;100.00;100689.00;10560004;28;20067;-96
2022/12/30 16:56:57;;;;;;;49.47;21.30;;;6.00;99.90;;;3.64;100.00;100690.69;10552213;28;20056;-96
2022/12/30 17:02:01;;;;;;;57.27;23.17;;;6.00;99.90;;;3.61;100.00;100696.16;10553924;28;20107;-96
2022/12/30 17:07:11;;;;;;;55.90;24.63;;;6.00;99.90;;;3.57;100.00;100711.31;10554760;27;20059;-96
2022/12/30 17:12:14;;;;;;;60.63;23.83;;;6.00;99.90;;;3.55;100.00;100707.97;10544477;28;20060;-91
2022/12/30 17:17:17;;;;;;;72.53;27.37;;;5.90;99.90;;;3.59;100.00;100709.41;10559113;28;20056;-92
2022/12/30 17:22:24;;;;;;;75.23;28.07;;;5.90;99.90;;;3.57;100.00;100699.97;10550733;28;20538;-91
2022/12/30 17:27:29;;;;;;;60.60;26.33;;;5.90;99.90;;;3.58;100.00;100723.50;10552606;28;20056;-93
2022/12/30 17:32:40;;;;;;;59.10;26.20;;;5.90;99.90;;;3.56;100.00;100709.63;10550123;28;20056;-95
2022/12/30 17:37:43;;;;;;;58.97;24.43;;;5.90;99.90;;;3.58;100.00;100710.34;10530702;28;20062;-94
2022/12/30 17:42:46;;;;;;;66.80;27.63;;;5.90;99.90;;;3.60;100.00;100703.22;10558914;28;20311;-94
2022/12/30 17:47:50;;;;;;;76.00;29.17;;;6.00;99.90;;;3.63;100.00;100734.53;10560868;28;20052;-93
2022/12/30 17:52:54;;;;;;;57.83;23.27;;;5.90;99.90;;;3.61;100.00;100749.56;10528208;28;20083;-93
2022/12/30 17:58:01;;;;;;;68.57;27.27;;;6.00;99.90;;;3.57;100.00;100724.44;10525727;28;20079;-93
2022/12/30 18:03:05;;;;;;;62.37;25.30;;;6.00;99.90;;;3.63;100.00;100741.56;10530750;28;20055;-93
2022/12/30 18:08:09;;;;;;;70.57;30.20;;;6.00;99.90;;;3.62;100.00;100724.97;10536922;28;20052;-93
2022/12/30 18:13:13;;;;;;;61.90;26.53;;;5.90;99.90;;;3.63;100.00;100721.38;10551768;28;20060;-93
2022/12/30 18:18:16;;;;;;;79.03;31.53;;;6.00;99.90;;;3.61;100.00;100709.31;10554220;28;20052;-92
2022/12/30 18:23:19;;;;;;;81.30;31.93;;;6.00;99.90;;;3.60;100.00;100720.75;10565507;28;20821;-93
2022/12/30 18:28:24;;;;;;;92.67;34.70;;;6.00;99.90;;;3.62;100.00;100724.97;10589900;28;20107;-93
2022/12/30 18:33:27;;;;;;;88.63;35.47;;;5.90;99.90;;;3.61;100.00;100718.03;10560619;28;20060;-93
2022/12/30 18:38:30;;;;;;;78.03;34.60;;;5.90;99.90;;;3.64;100.00;100716.97;10553444;28;20067;-92
2022/12/30 18:43:33;;;;;;;109.03;39.93;;;5.90;99.90;;;3.66;100.00;100725.59;10530038;28;20146;-93
2022/12/30 18:48:36;;;;;;;75.20;31.93;;;6.00;99.90;;;3.62;100.00;100729.38;10553993;28;20147;-93
2022/12/30 18:53:40;;;;;;;74.83;32.20;;;6.00;99.90;;;3.60;100.00;100734.75;10551952;28;20052;-93
2022/12/30 18:58:43;;;;;;;79.63;31.43;;;5.90;99.90;;;3.59;100.00;100748.81;10539368;28;20182;-93
2022/12/30 19:03:47;;;;;;;60.20;26.37;;;5.90;99.90;;;3.56;100.00;100743.78;10564127;28;20056;-93
2022/12/30 19:08:50;;;;;;;62.63;27.17;;;5.90;99.90;;;3.51;100.00;100742.44;10537254;28;20483;-92
2022/12/30 19:13:57;;;;;;;62.20;27.30;;;5.80;99.90;;;3.52;100.00;100736.22;10544958;28;20107;-93
2022/12/30 19:19:04;;;;;;;63.53;27.67;;;5.80;99.90;;;3.52;100.00;100726.56;10523859;28;20063;-93
2022/12/30 19:24:14;;;;;;;64.60;28.63;;;5.90;99.90;;;3.57;100.00;100728.88;10529743;28;20056;-94
2022/12/30 19:29:18;;;;;;;68.77;27.73;;;5.90;99.90;;;3.55;100.00;100720.25;10507035;28;20067;-94
2022/12/30 19:34:24;;;;;;;41.23;18.20;;;5.90;99.90;;;3.61;100.00;100727.69;10501595;28;20060;-95
2022/12/30 19:39:27;;;;;;;39.93;19.73;;;6.00;99.90;;;3.61;100.00;100743.47;10514547;28;20592;-94
2022/12/30 19:44:30;;;;;;;55.63;23.47;;;6.00;99.90;;;3.61;100.00;100740.84;10532631;28;20052;-94
2022/12/30 19:49:34;;;;;;;46.13;19.40;;;6.00;99.90;;;3.66;100.00;100754.50;10526398;28;20056;-93
2022/12/30 19:54:37;;;;;;;55.43;24.70;;;6.00;99.90;;;3.65;100.00;100747.53;10509127;28;20060;-92
2022/12/30 19:59:40;;;;;;;52.50;23.17;;;6.00;99.90;;;3.61;100.00;100740.84;10501728;28;20058;-94
2022/12/30 20:04:44;;;;;;;42.27;19.17;;;6.00;99.90;;;3.61;100.00;100769.75;10554910;28;20066;-93
2022/12/30 20:09:47;;;;;;;58.87;22.03;;;6.00;99.90;;;3.60;100.00;100747.03;10520446;28;20098;-93
2022/12/30 20:15:10;;;;;;;49.67;21.43;;;5.90;99.90;;;3.60;100.00;100750.53;10537708;28;20159;-93
2022/12/30 20:20:13;;;;;;;68.10;28.27;;;6.00;99.90;;;3.59;100.00;100751.44;10562665;27;20469;-93
2022/12/30 20:25:17;;;;;;;57.03;23.30;;;6.00;99.90;;;3.59;100.00;100758.50;10526129;28;20189;-94
2022/12/30 20:30:20;;;;;;;55.00;24.27;;;5.90;99.90;;;3.58;100.00;100751.56;10557777;28;20071;-94
2022/12/30 20:35:23;;;;;;;62.90;23.73;;;5.90;99.90;;;3.60;100.00;100753.16;10548691;28;20067;-94
2022/12/30 20:40:26;;;;;;;82.77;28.87;;;6.00;99.90;;;3.63;100.00;100767.84;10518716;28;20055;-93
2022/12/30 20:45:29;;;;;;;51.50;22.73;;;6.00;99.90;;;3.58;100.00;100764.69;10541170;28;20129;-93
2022/12/30 20:50:33;;;;;;;76.60;28.70;;;6.00;99.90;;;3.57;100.00;100763.03;10543667;28;20587;-94
2022/12/30 20:55:39;;;;;;;61.03;24.70;;;6.00;99.90;;;3.56;100.00;100763.97;10543343;28;20056;-93
2022/12/30 21:00:42;;;;;;;57.67;23.93;;;6.00;99.90;;;3.60;100.00;100778.56;10537991;28;20066;-93
2022/12/30 21:05:45;;;;;;;61.43;24.13;;;6.00;99.90;;;3.60;100.00;100789.94;10508513;28;20139;-93
2022/12/30 21:10:59;;;;;;;57.50;25.00;;;6.00;99.90;;;3.60;100.00;100781.19;10514323;28;20067;-94
2022/12/30 21:16:05;;;;;;;67.07;27.30;;;5.90;99.90;;;3.58;100.00;100780.47;10550339;28;20088;-93
2022/12/30 21:21:09;;;;;;;52.87;21.93;;;5.90;99.90;;;3.54;100.00;100774.63;10548830;28;20125;-93
2022/12/30 21:26:18;;;;;;;55.23;23.17;;;5.90;99.90;;;3.57;100.00;100774.38;10526722;28;20056;-95
2022/12/30 21:31:26;;;;;;;42.30;20.07;;;5.90;99.90;;;3.56;100.00;100783.22;10507697;28;20056;-93
2022/12/30 21:36:31;;;;;;;45.20;21.33;;;5.90;99.90;;;3.54;100.00;100771.13;10530509;28;20060;-94
2022/12/30 22:03:13;;;;;;;44.53;21.97;;;5.90;99.90;;;3.47;100.00;100768.91;10482276;28;20068;-92
2022/12/30 22:08:16;;;;;;;40.10;17.80;;;5.80;99.90;;;3.44;100.00;100763.91;10507668;28;20587;-92
2022/12/30 22:13:31;;;;;;;39.70;16.27;;;5.80;99.90;;;3.43;100.00;100771.91;10498754;28;20056;-92
2022/12/30 22:18:46;;;;;;;38.37;16.80;;;5.80;99.90;;;3.43;100.00;100778.00;10487737;28;20525;-92